Time;durP1;ratioP1;P1;durP2;ratioP2;P2;SDS_P1;SDS_P2;PMS_P1;PMS_P2;Temp;Humidity;BMP_temperature;BMP_pressure;BME280_temperature;BME280_humidity;BME280_pressure;Samples;Min_cycle;Max_cycle;Signal;HPM_P1;HPM_P2
2023/02/20 00:00:42;;;;;;;3.13;2.77;;;7.20;74.10;;;;;;5020553;28;20245;-58
2023/02/20 00:03:08;;;;;;;3.97;2.67;;;7.20;74.30;;;;;;5023890;28;20801;-58
2023/02/20 00:05:33;;;;;;;4.53;2.90;;;7.10;74.80;;;;;;5023603;28;20714;-59
2023/02/20 00:07:59;;;;;;;5.63;3.10;;;7.10;74.50;;;;;;5019757;28;20602;-59
2023/02/20 00:10:25;;;;;;;3.30;2.47;;;7.10;74.70;;;;;;5021217;28;20622;-58
2023/02/20 00:12:51;;;;;;;4.33;2.40;;;7.10;74.90;;;;;;5021560;28;20895;-59
2023/02/20 00:15:19;;;;;;;4.23;2.77;;;7.10;75.00;;;;;;5019619;28;20450;-59
2023/02/20 00:17:48;;;;;;;9.33;2.90;;;7.10;75.20;;;;;;5018732;28;20541;-58
2023/02/20 00:20:16;;;;;;;3.43;3.07;;;7.10;75.30;;;;;;5016990;28;20427;-58
2023/02/20 00:22:42;;;;;;;4.47;2.70;;;7.10;75.40;;;;;;5021847;28;20441;-57
2023/02/20 00:25:08;;;;;;;5.83;3.10;;;7.10;75.50;;;;;;5019656;28;20424;-58
2023/02/20 00:27:33;;;;;;;5.77;2.70;;;7.10;75.70;;;;;;5022569;28;20196;-57
2023/02/20 00:29:59;;;;;;;4.90;2.60;;;7.10;75.70;;;;;;5019898;28;20631;-58
2023/02/20 00:32:25;;;;;;;3.20;2.63;;;7.10;75.70;;;;;;5017767;28;20230;-58
2023/02/20 00:34:50;;;;;;;6.17;3.00;;;7.10;75.60;;;;;;5021067;28;20215;-58
2023/02/20 00:37:16;;;;;;;3.00;2.60;;;7.10;75.80;;;;;;5022654;28;20206;-58
2023/02/20 00:39:42;;;;;;;9.17;3.23;;;7.10;75.90;;;;;;5021093;28;20267;-58
2023/02/20 00:42:07;;;;;;;2.83;2.53;;;7.10;76.10;;;;;;5022559;28;20259;-58
2023/02/20 00:44:33;;;;;;;5.60;2.70;;;7.10;76.40;;;;;;5020884;28;20226;-59
2023/02/20 00:46:58;;;;;;;2.60;2.40;;;7.10;76.60;;;;;;5022187;28;20775;-59
2023/02/20 00:49:24;;;;;;;7.07;4.10;;;7.00;76.70;;;;;;5021102;28;20224;-58
2023/02/20 00:51:50;;;;;;;2.90;2.60;;;7.00;76.90;;;;;;5021113;28;20184;-58
2023/02/20 00:54:15;;;;;;;3.87;2.97;;;7.00;77.60;;;;;;5019849;28;20246;-58
2023/02/20 00:56:41;;;;;;;6.93;2.53;;;6.90;78.40;;;;;;5020789;28;20257;-59
2023/02/20 00:59:07;;;;;;;5.87;3.00;;;6.90;78.80;;;;;;5005865;28;20172;-58
2023/02/20 01:01:33;;;;;;;8.80;3.03;;;6.90;79.10;;;;;;5016936;28;20180;-59
2023/02/20 01:03:58;;;;;;;7.23;2.90;;;6.90;79.10;;;;;;5021688;28;20277;-58
2023/02/20 01:06:24;;;;;;;3.13;2.63;;;6.90;79.20;;;;;;5023094;28;20482;-58
2023/02/20 01:08:50;;;;;;;5.20;2.80;;;6.90;79.00;;;;;;5024262;28;20191;-59
2023/02/20 01:11:16;;;;;;;4.60;2.73;;;6.90;78.80;;;;;;5023848;28;20175;-58
2023/02/20 01:13:42;;;;;;;3.90;2.53;;;6.90;78.60;;;;;;5020188;28;22557;-58
2023/02/20 01:16:07;;;;;;;8.60;3.10;;;6.90;78.60;;;;;;5023187;28;20556;-58
2023/02/20 01:18:33;;;;;;;3.03;2.70;;;6.90;79.00;;;;;;5025953;28;20181;-58
2023/02/20 01:20:59;;;;;;;4.60;3.10;;;6.80;78.70;;;;;;5026855;28;20175;-58
2023/02/20 01:23:25;;;;;;;4.10;2.87;;;6.80;79.10;;;;;;5026480;28;20182;-58
2023/02/20 01:25:50;;;;;;;3.40;2.70;;;6.80;79.50;;;;;;5026195;28;20943;-58
2023/02/20 01:28:16;;;;;;;4.17;2.73;;;6.80;79.90;;;;;;5029733;28;20218;-58
2023/02/20 01:30:42;;;;;;;5.70;3.23;;;6.80;80.10;;;;;;5025474;28;20203;-58
2023/02/20 01:33:07;;;;;;;4.47;2.80;;;6.80;80.60;;;;;;5030469;28;20234;-59
2023/02/20 01:35:33;;;;;;;3.40;2.57;;;6.80;80.90;;;;;;5010644;28;20196;-58
2023/02/20 01:37:59;;;;;;;3.63;2.60;;;6.80;81.10;;;;;;5025943;28;20657;-59
2023/02/20 01:40:26;;;;;;;4.27;2.90;;;6.80;80.90;;;;;;5027390;28;20209;-59
2023/02/20 01:42:51;;;;;;;4.53;2.60;;;6.80;80.50;;;;;;5028646;28;20427;-59
2023/02/20 01:45:23;;;;;;;6.80;3.20;;;6.80;80.40;;;;;;5030620;28;20521;-59
2023/02/20 01:47:51;;;;;;;5.87;3.13;;;6.80;80.00;;;;;;5033704;28;20203;-59
2023/02/20 01:50:20;;;;;;;4.03;2.83;;;6.80;79.80;;;;;;5022075;28;20791;-58
2023/02/20 01:52:50;;;;;;;4.70;2.40;;;6.80;79.70;;;;;;5031113;28;20509;-59
2023/02/20 01:55:21;;;;;;;3.53;2.90;;;6.70;79.70;;;;;;5035408;28;20532;-58
2023/02/20 01:58:01;;;;;;;5.47;2.80;;;6.70;80.10;;;;;;5035795;28;20449;-59
2023/02/20 02:00:28;;;;;;;8.33;3.23;;;6.70;80.30;;;;;;5025206;28;20439;-59
2023/02/20 02:03:10;;;;;;;8.83;3.30;;;6.70;80.40;;;;;;5032915;28;21020;-59
2023/02/20 02:05:39;;;;;;;5.90;3.07;;;6.70;80.60;;;;;;5040781;28;21021;-59
2023/02/20 02:08:07;;;;;;;5.40;3.00;;;6.70;80.70;;;;;;5035366;28;20807;-58
2023/02/20 02:11:03;;;;;;;4.40;3.20;;;6.70;81.00;;;;;;5025849;28;20453;-57
2023/02/20 02:13:29;;;;;;;3.20;2.60;;;6.70;81.20;;;;;;5025486;28;20458;-59
2023/02/20 02:16:12;;;;;;;4.60;2.63;;;6.60;81.20;;;;;;5026274;28;20851;-58
2023/02/20 02:19:11;;;;;;;4.77;2.90;;;6.60;81.30;;;;;;5027463;28;20489;-59
2023/02/20 02:22:14;;;;;;;5.80;2.57;;;6.60;81.90;;;;;;5025778;28;20783;-59
2023/02/20 02:24:59;;;;;;;5.57;2.77;;;6.60;81.40;;;;;;5026162;28;20868;-58
2023/02/20 02:27:44;;;;;;;5.97;3.03;;;6.70;80.80;;;;;;5027386;28;20457;-59
2023/02/20 02:30:24;;;;;;;9.40;3.00;;;6.60;80.60;;;;;;5037117;28;20433;-58
2023/02/20 02:33:32;;;;;;;7.70;3.30;;;6.60;80.60;;;;;;5029884;28;20422;-59
2023/02/20 02:36:04;;;;;;;6.43;3.50;;;6.60;80.70;;;;;;5026607;28;20435;-58
2023/02/20 02:38:50;;;;;;;5.13;2.70;;;6.60;81.20;;;;;;5030994;28;20802;-59
2023/02/20 02:41:30;;;;;;;2.67;2.40;;;6.60;81.30;;;;;;5036202;28;20460;-59
2023/02/20 02:44:03;;;;;;;4.30;2.60;;;6.60;80.90;;;;;;5043369;28;20426;-59
2023/02/20 02:46:39;;;;;;;5.87;2.77;;;6.60;80.30;;;;;;5039602;28;20422;-58
2023/02/20 02:49:21;;;;;;;4.43;2.63;;;6.60;80.10;;;;;;5038683;28;20499;-59
2023/02/20 02:51:48;;;;;;;11.50;3.17;;;6.60;79.90;;;;;;5030165;28;20441;-58
2023/02/20 02:54:15;;;;;;;4.77;2.60;;;6.60;80.00;;;;;;5029020;28;20532;-58
2023/02/20 02:56:44;;;;;;;7.23;2.23;;;6.60;79.90;;;;;;5019868;28;20459;-58
2023/02/20 02:59:14;;;;;;;5.47;2.83;;;6.60;80.30;;;;;;5030344;28;20505;-58
2023/02/20 03:01:45;;;;;;;6.77;3.03;;;6.50;80.20;;;;;;5025397;28;20453;-59
2023/02/20 03:04:12;;;;;;;3.83;2.70;;;6.50;80.50;;;;;;5023929;28;20438;-59
2023/02/20 03:06:43;;;;;;;7.80;2.67;;;6.50;80.70;;;;;;5026241;28;20453;-59
2023/02/20 03:09:16;;;;;;;4.97;2.50;;;6.50;80.90;;;;;;5028612;28;20537;-58
2023/02/20 03:11:43;;;;;;;4.00;3.00;;;6.40;81.10;;;;;;5026380;28;20438;-59
2023/02/20 03:17:13;;;;;;;7.13;3.40;;;6.30;81.40;;;;;;5022020;28;20532;-58
2023/02/20 03:19:46;;;;;;;4.37;2.40;;;6.30;82.20;;;;;;5027159;28;20434;-58
2023/02/20 03:22:27;;;;;;;4.40;2.50;;;6.20;82.60;;;;;;5024538;28;20491;-57
2023/02/20 03:25:01;;;;;;;4.83;2.60;;;6.20;83.30;;;;;;5024770;28;20438;-58
2023/02/20 03:27:41;;;;;;;3.10;2.60;;;6.20;83.80;;;;;;5027898;28;20457;-59
2023/02/20 03:30:40;;;;;;;7.80;2.60;;;6.10;84.20;;;;;;5022383;28;20476;-59
2023/02/20 03:44:18;;;;;;;4.13;2.33;;;5.90;87.20;;;;;;5026519;28;20897;-58
2023/02/20 03:46:47;;;;;;;6.37;3.00;;;5.80;87.80;;;;;;5018277;28;20900;-59
2023/02/20 03:49:18;;;;;;;5.30;2.93;;;5.80;88.70;;;;;;5025568;28;20513;-58
2023/02/20 03:51:43;;;;;;;8.03;3.30;;;5.70;89.30;;;;;;5024580;28;21060;-59
2023/02/20 03:54:10;;;;;;;4.90;2.83;;;5.70;89.50;;;;;;5028457;28;20541;-59
2023/02/20 03:56:44;;;;;;;6.30;2.60;;;5.70;89.30;;;;;;5026900;28;20739;-59
2023/02/20 03:59:24;;;;;;;5.10;2.50;;;5.60;90.00;;;;;;5025205;28;20445;-58
2023/02/20 04:01:55;;;;;;;6.03;3.30;;;5.60;90.40;;;;;;5022656;28;20969;-58
2023/02/20 04:04:27;;;;;;;4.70;3.57;;;5.60;90.50;;;;;;5023932;28;20442;-59
2023/02/20 04:06:54;;;;;;;5.63;2.73;;;5.60;90.50;;;;;;5026689;28;20470;-59
2023/02/20 04:09:27;;;;;;;8.57;3.13;;;5.50;90.30;;;;;;5025197;28;20474;-58
2023/02/20 04:11:59;;;;;;;6.07;2.83;;;5.50;90.50;;;;;;5026122;28;20530;-59
2023/02/20 04:14:28;;;;;;;3.87;2.60;;;5.40;91.00;;;;;;5025202;28;20722;-59
2023/02/20 04:16:59;;;;;;;4.77;2.87;;;5.40;91.40;;;;;;5024745;28;20462;-59
2023/02/20 04:19:25;;;;;;;9.87;3.37;;;5.40;91.80;;;;;;5027107;28;20778;-59
2023/02/20 04:21:54;;;;;;;4.93;2.50;;;5.30;92.30;;;;;;5025852;28;20445;-59
2023/02/20 04:24:27;;;;;;;8.53;2.93;;;5.30;92.20;;;;;;5008169;28;20272;-58
2023/02/20 04:26:53;;;;;;;4.80;2.73;;;5.30;92.20;;;;;;5029665;28;20445;-58
2023/02/20 04:29:19;;;;;;;5.57;3.90;;;5.20;92.30;;;;;;5028773;28;20469;-58
2023/02/20 04:31:45;;;;;;;8.43;3.43;;;5.20;92.60;;;;;;5022737;28;20209;-58
2023/02/20 04:34:11;;;;;;;5.07;2.83;;;5.10;93.20;;;;;;5019669;28;20454;-58
2023/02/20 04:36:36;;;;;;;5.10;3.20;;;5.10;93.80;;;;;;5031537;28;20200;-59
2023/02/20 04:39:02;;;;;;;7.50;2.93;;;5.00;94.40;;;;;;5023747;28;20176;-59
2023/02/20 04:41:28;;;;;;;5.77;3.13;;;5.10;94.80;;;;;;5025918;28;20172;-59
2023/02/20 04:44:38;;;;;;;4.33;2.50;;;5.00;94.40;;;;;;5023596;28;20255;-58
2023/02/20 04:46:39;;;;;;;7.70;2.57;;;5.00;94.00;;;;;;5007704;28;20226;-58
2023/02/20 04:49:05;;;;;;;2.97;2.40;;;5.00;93.70;;;;;;5010276;28;20434;-58
2023/02/20 04:51:30;;;;;;;5.73;2.90;;;4.90;94.30;;;;;;4995475;28;20191;-59
2023/02/20 04:53:56;;;;;;;3.73;3.03;;;4.90;94.70;;;;;;5016949;28;20199;-58
2023/02/20 04:56:21;;;;;;;8.67;3.17;;;4.90;94.70;;;;;;5016258;28;20206;-59
2023/02/20 04:58:48;;;;;;;5.70;3.20;;;4.80;94.90;;;;;;5015852;28;20242;-58
2023/02/20 05:01:15;;;;;;;5.30;3.37;;;4.80;95.60;;;;;;5017728;28;20180;-56
2023/02/20 05:03:40;;;;;;;5.00;3.07;;;4.70;95.80;;;;;;5017726;28;20438;-59
2023/02/20 05:06:06;;;;;;;3.70;2.73;;;4.70;95.50;;;;;;5010028;28;20449;-59
2023/02/20 05:08:32;;;;;;;4.53;2.33;;;4.70;95.80;;;;;;5027886;28;20195;-58
2023/02/20 05:10:57;;;;;;;9.00;2.70;;;4.60;96.00;;;;;;5019636;28;20182;-58
2023/02/20 05:13:23;;;;;;;5.00;2.87;;;4.60;95.60;;;;;;5004256;28;20258;-59
2023/02/20 05:15:48;;;;;;;7.27;3.10;;;4.50;95.40;;;;;;5025345;28;20626;-58
2023/02/20 05:18:29;;;;;;;3.97;2.77;;;4.50;95.70;;;;;;5023802;28;20180;-58
2023/02/20 05:23:40;;;;;;;13.30;4.93;;;4.40;96.90;;;;;;5026362;28;20476;-59
2023/02/20 05:26:15;;;;;;;8.33;3.60;;;4.30;97.30;;;;;;4993826;28;22641;-59
2023/02/20 05:28:41;;;;;;;12.27;3.57;;;4.20;97.10;;;;;;5019207;28;20330;-58
2023/02/20 05:31:07;;;;;;;4.67;2.90;;;4.10;97.90;;;;;;5014506;28;20513;-59
2023/02/20 05:33:32;;;;;;;9.33;3.00;;;4.10;97.90;;;;;;5025874;28;20203;-60
2023/02/20 05:35:58;;;;;;;6.27;3.30;;;4.00;98.00;;;;;;5028605;28;20658;-59
2023/02/20 05:38:24;;;;;;;8.93;3.33;;;3.90;98.10;;;;;;5008798;28;20172;-58
2023/02/20 05:40:50;;;;;;;3.47;2.43;;;3.90;99.90;;;;;;5027453;28;20412;-58
2023/02/20 05:43:16;;;;;;;11.53;3.30;;;4.00;99.90;;;;;;5018288;28;20186;-58
2023/02/20 05:45:41;;;;;;;3.20;2.83;;;4.00;99.90;;;;;;5024120;28;20211;-57
2023/02/20 05:48:07;;;;;;;4.13;2.87;;;4.00;99.60;;;;;;5022442;28;20532;-58
2023/02/20 05:50:33;;;;;;;8.70;2.90;;;3.90;99.20;;;;;;5024841;28;20644;-58
2023/02/20 05:52:58;;;;;;;14.00;4.33;;;3.90;99.00;;;;;;5036858;28;20168;-58
2023/02/20 05:55:24;;;;;;;5.50;3.07;;;3.80;98.90;;;;;;5027139;28;20680;-58
2023/02/20 05:57:49;;;;;;;4.37;2.63;;;3.80;99.50;;;;;;5026230;28;20192;-59
2023/02/20 06:00:15;;;;;;;7.83;3.30;;;3.70;99.90;;;;;;5026669;28;20214;-59
2023/02/20 06:02:41;;;;;;;4.80;3.57;;;3.60;99.70;;;;;;5024000;28;20176;-59
2023/02/20 06:05:07;;;;;;;2.83;2.47;;;3.60;99.90;;;;;;5003138;28;20241;-58
2023/02/20 06:07:33;;;;;;;4.87;2.17;;;3.50;99.90;;;;;;5026829;28;20195;-59
2023/02/20 06:09:59;;;;;;;7.20;3.07;;;3.50;99.90;;;;;;5026885;28;20453;-59
2023/02/20 06:12:25;;;;;;;6.70;3.00;;;3.50;99.90;;;;;;5026167;28;20456;-58
2023/02/20 06:14:50;;;;;;;5.43;2.93;;;3.50;99.90;;;;;;5029067;28;20396;-57
2023/02/20 06:17:16;;;;;;;4.10;2.97;;;3.50;99.90;;;;;;5029051;28;20496;-59
2023/02/20 06:19:42;;;;;;;4.50;2.90;;;3.50;99.90;;;;;;5021937;28;20294;-59
2023/02/20 06:22:08;;;;;;;8.73;4.17;;;3.50;99.90;;;;;;5023642;28;20191;-59
2023/02/20 06:24:33;;;;;;;6.60;3.60;;;3.40;99.90;;;;;;5030251;28;20641;-58
2023/02/20 06:27:00;;;;;;;4.73;3.40;;;3.40;99.90;;;;;;5025899;28;20986;-58
2023/02/20 06:29:25;;;;;;;5.43;3.73;;;3.40;99.90;;;;;;5038463;28;20756;-58
2023/02/20 06:31:51;;;;;;;6.20;3.63;;;3.30;99.90;;;;;;5027562;28;20429;-58
2023/02/20 06:34:17;;;;;;;8.80;4.13;;;3.30;99.90;;;;;;5032169;28;20204;-59
2023/02/20 06:36:44;;;;;;;5.77;3.20;;;3.30;99.90;;;;;;5034922;28;20262;-58
2023/02/20 06:39:12;;;;;;;10.73;4.80;;;3.20;99.90;;;;;;5021355;28;20464;-58
2023/02/20 06:41:37;;;;;;;9.50;4.20;;;3.10;99.90;;;;;;5027810;28;20456;-58
2023/02/20 06:44:04;;;;;;;7.90;4.33;;;3.10;99.90;;;;;;5037445;28;20469;-58
2023/02/20 06:46:30;;;;;;;8.73;4.60;;;3.10;99.90;;;;;;5015478;28;20207;-58
2023/02/20 06:48:57;;;;;;;8.43;4.20;;;3.10;99.90;;;;;;5029462;28;21108;-59
2023/02/20 06:51:32;;;;;;;7.20;4.90;;;3.10;99.90;;;;;;5030036;28;20205;-60
2023/02/20 06:53:59;;;;;;;9.00;4.40;;;3.10;99.90;;;;;;5028143;28;20553;-59
2023/02/20 06:56:27;;;;;;;6.40;4.00;;;3.10;99.90;;;;;;5016460;28;21014;-58
2023/02/20 06:58:53;;;;;;;6.13;4.30;;;3.10;99.90;;;;;;5009985;28;20460;-59
2023/02/20 07:01:22;;;;;;;8.77;3.77;;;3.10;99.90;;;;;;5009717;28;20436;-58
2023/02/20 07:03:49;;;;;;;7.00;4.10;;;3.10;99.90;;;;;;5027368;28;20518;-59
2023/02/20 07:06:15;;;;;;;5.43;4.00;;;3.10;99.90;;;;;;5027885;28;20537;-58
2023/02/20 07:08:41;;;;;;;8.03;4.90;;;3.10;99.90;;;;;;5029543;28;20514;-58
2023/02/20 07:11:07;;;;;;;9.00;5.60;;;3.10;99.90;;;;;;5037144;28;20541;-57
2023/02/20 07:13:33;;;;;;;8.63;5.43;;;3.10;99.90;;;;;;5028620;28;20211;-58
2023/02/20 07:15:58;;;;;;;8.50;5.27;;;3.10;99.90;;;;;;5030243;28;20440;-59
2023/02/20 07:18:26;;;;;;;5.90;5.13;;;3.10;99.90;;;;;;5038931;28;20174;-60
2023/02/20 07:20:52;;;;;;;4.77;4.00;;;3.10;99.90;;;;;;5037073;28;20648;-59
2023/02/20 07:23:18;;;;;;;9.10;4.43;;;3.20;99.90;;;;;;5040208;28;20911;-59
2023/02/20 07:25:44;;;;;;;9.33;4.40;;;3.20;99.90;;;;;;5037811;28;20444;-59
2023/02/20 07:28:10;;;;;;;8.10;5.50;;;3.30;99.90;;;;;;5023814;28;20187;-58
2023/02/20 07:30:36;;;;;;;7.40;4.00;;;3.30;99.90;;;;;;5025676;28;20180;-59
2023/02/20 07:33:02;;;;;;;11.77;5.80;;;3.40;99.90;;;;;;5017858;28;20427;-59
2023/02/20 07:35:27;;;;;;;9.77;5.50;;;3.50;99.90;;;;;;5029767;28;20290;-58
2023/02/20 07:37:53;;;;;;;5.10;4.57;;;3.50;99.90;;;;;;5027569;28;20527;-59
2023/02/20 07:40:18;;;;;;;6.03;4.03;;;3.60;99.90;;;;;;5027289;28;20180;-60
2023/02/20 07:42:44;;;;;;;5.10;4.07;;;3.60;99.90;;;;;;5036983;28;20179;-59
2023/02/20 07:45:10;;;;;;;6.20;3.83;;;3.60;99.90;;;;;;5029118;28;20269;-58
2023/02/20 07:47:36;;;;;;;5.30;4.03;;;3.70;99.90;;;;;;5026704;28;20247;-56
2023/02/20 07:50:02;;;;;;;6.37;4.13;;;3.70;99.90;;;;;;5023601;28;20434;-59
2023/02/20 07:52:28;;;;;;;7.00;3.87;;;3.70;99.90;;;;;;5026791;28;20192;-59
2023/02/20 07:54:53;;;;;;;14.30;4.90;;;3.70;99.90;;;;;;5035821;28;20456;-56
2023/02/20 07:57:19;;;;;;;7.10;4.37;;;3.80;99.90;;;;;;5037979;28;20734;-54
2023/02/20 07:59:45;;;;;;;7.73;4.80;;;3.80;99.90;;;;;;5028639;28;20182;-59
2023/02/20 08:02:10;;;;;;;8.80;5.07;;;3.80;99.90;;;;;;5023711;28;20187;-60
2023/02/20 08:04:36;;;;;;;8.40;5.30;;;3.90;99.90;;;;;;5005622;28;20564;-60
2023/02/20 08:07:02;;;;;;;8.97;5.10;;;3.90;99.90;;;;;;5011290;28;20203;-59
2023/02/20 08:09:27;;;;;;;9.60;5.23;;;4.00;99.90;;;;;;5022667;28;20180;-60
2023/02/20 08:11:53;;;;;;;10.13;5.90;;;4.10;99.90;;;;;;5016774;28;20184;-60
2023/02/20 08:14:19;;;;;;;7.60;4.70;;;4.20;99.90;;;;;;5022921;28;20207;-62
2023/02/20 08:16:44;;;;;;;8.00;4.53;;;4.20;99.90;;;;;;5026117;28;20301;-60
2023/02/20 08:19:10;;;;;;;7.20;5.03;;;4.30;99.90;;;;;;5004788;28;20648;-60
2023/02/20 08:21:35;;;;;;;13.93;5.80;;;4.40;99.90;;;;;;5025235;28;20245;-60
2023/02/20 08:24:01;;;;;;;8.20;5.37;;;4.50;99.90;;;;;;5002591;28;20179;-60
2023/02/20 08:26:27;;;;;;;7.30;4.57;;;4.60;99.90;;;;;;4998666;28;20917;-59
2023/02/20 08:28:53;;;;;;;12.70;5.60;;;4.70;99.90;;;;;;5023546;28;20192;-60
2023/02/20 08:31:20;;;;;;;7.57;5.10;;;4.80;99.90;;;;;;5020330;28;21011;-61
2023/02/20 08:33:45;;;;;;;13.53;5.77;;;4.90;99.90;;;;;;5016164;28;20262;-61
2023/02/20 08:36:11;;;;;;;14.63;6.57;;;5.00;99.90;;;;;;5022850;28;21388;-59
2023/02/20 08:38:37;;;;;;;14.33;7.27;;;5.10;98.80;;;;;;5026799;28;20184;-59
2023/02/20 08:41:11;;;;;;;10.53;6.83;;;5.20;98.50;;;;;;5019150;28;20202;-59
2023/02/20 08:43:38;;;;;;;13.67;6.83;;;5.30;98.30;;;;;;5022569;28;20442;-59
2023/02/20 08:46:05;;;;;;;13.40;6.30;;;5.40;97.20;;;;;;5020367;28;20869;-59
2023/02/20 08:48:30;;;;;;;11.33;6.37;;;5.50;96.80;;;;;;5025991;28;20446;-59
2023/02/20 08:50:56;;;;;;;17.57;5.93;;;5.60;95.50;;;;;;5028445;28;20432;-59
2023/02/20 08:53:22;;;;;;;9.53;5.43;;;5.70;93.70;;;;;;5020721;28;20279;-59
2023/02/20 08:55:47;;;;;;;11.93;5.80;;;5.80;92.80;;;;;;5022044;28;20176;-57
2023/02/20 08:58:13;;;;;;;12.20;6.53;;;5.90;92.20;;;;;;5018170;28;20172;-59
2023/02/20 09:00:38;;;;;;;9.10;5.77;;;6.00;90.90;;;;;;5020056;28;20176;-60
2023/02/20 09:03:07;;;;;;;12.83;4.97;;;6.10;90.00;;;;;;5023260;28;20286;-60
2023/02/20 09:05:34;;;;;;;9.33;5.73;;;6.20;88.70;;;;;;5032067;28;20202;-61
2023/02/20 09:08:01;;;;;;;12.07;5.90;;;6.30;87.30;;;;;;5025916;28;20447;-61
2023/02/20 09:10:26;;;;;;;10.50;5.50;;;6.40;84.80;;;;;;5023965;28;20445;-61
2023/02/20 09:12:52;;;;;;;9.23;4.23;;;6.60;82.80;;;;;;5025938;28;20528;-61
2023/02/20 09:15:18;;;;;;;8.00;4.40;;;6.60;80.50;;;;;;5024120;28;20199;-61
2023/02/20 09:17:53;;;;;;;5.20;4.00;;;6.80;78.60;;;;;;5027263;28;20232;-61
2023/02/20 09:20:20;;;;;;;7.20;3.73;;;6.90;76.30;;;;;;5037309;28;20510;-60
2023/02/20 09:22:49;;;;;;;6.67;3.57;;;7.00;74.50;;;;;;5028845;28;20490;-61
2023/02/20 09:25:16;;;;;;;5.83;3.57;;;7.10;72.30;;;;;;5034685;28;20434;-61
2023/02/20 09:27:41;;;;;;;5.13;3.40;;;7.30;71.60;;;;;;5022715;28;20454;-61
2023/02/20 09:30:08;;;;;;;4.80;3.63;;;7.40;70.70;;;;;;5025014;28;20422;-62
2023/02/20 09:32:33;;;;;;;6.77;4.40;;;7.50;70.00;;;;;;5004203;28;20180;-61
2023/02/20 09:34:59;;;;;;;6.53;4.10;;;7.60;69.60;;;;;;5021674;28;20959;-60
2023/02/20 09:37:24;;;;;;;5.93;3.30;;;7.70;69.00;;;;;;5015849;28;20668;-60
2023/02/20 09:39:50;;;;;;;4.70;3.23;;;7.80;68.50;;;;;;5004030;28;20179;-61
2023/02/20 09:42:37;;;;;;;4.53;3.23;;;7.90;67.70;;;;;;5020189;28;20184;-60
2023/02/20 09:45:10;;;;;;;5.30;3.37;;;8.10;67.10;;;;;;5016953;28;20176;-61
2023/02/20 09:47:45;;;;;;;5.13;3.20;;;8.20;66.50;;;;;;5020807;28;20462;-60
2023/02/20 09:50:17;;;;;;;5.20;3.50;;;8.30;66.10;;;;;;5020363;28;20459;-60
2023/02/20 09:52:49;;;;;;;5.73;4.00;;;8.50;66.10;;;;;;5007351;28;20430;-60
2023/02/20 09:55:19;;;;;;;5.67;3.40;;;8.70;65.20;;;;;;5024886;28;20524;-60
2023/02/20 09:57:48;;;;;;;9.73;4.10;;;8.80;64.30;;;;;;5020210;28;20454;-61
2023/02/20 10:00:27;;;;;;;5.80;3.40;;;8.90;64.00;;;;;;5019285;28;20492;-60
2023/02/20 10:03:05;;;;;;;5.93;3.93;;;9.10;64.10;;;;;;5026800;28;20441;-61
2023/02/20 10:05:33;;;;;;;7.83;3.17;;;9.30;63.90;;;;;;5023698;28;20437;-61
2023/02/20 10:07:59;;;;;;;6.77;3.37;;;9.50;63.00;;;;;;5017399;28;21121;-60
2023/02/20 10:10:28;;;;;;;6.20;3.20;;;9.60;62.50;;;;;;5018631;28;20518;-61
2023/02/20 10:13:31;;;;;;;8.13;3.47;;;9.80;61.90;;;;;;5013111;28;20454;-61
2023/02/20 10:16:16;;;;;;;8.00;3.27;;;10.00;60.70;;;;;;5021705;28;20450;-61
2023/02/20 10:19:03;;;;;;;5.10;3.30;;;10.20;59.50;;;;;;5024029;28;20438;-61
2023/02/20 10:21:49;;;;;;;3.90;2.70;;;10.30;58.70;;;;;;5021202;28;20495;-60
2023/02/20 10:24:33;;;;;;;4.03;2.97;;;10.30;58.60;;;;;;5021855;28;20438;-61
2023/02/20 10:27:29;;;;;;;6.43;3.57;;;10.50;58.20;;;;;;5022455;28;20494;-60
2023/02/20 10:29:57;;;;;;;5.83;3.03;;;10.60;58.30;;;;;;5016065;28;20427;-62
2023/02/20 10:32:34;;;;;;;5.90;3.20;;;10.70;58.00;;;;;;5021328;28;21054;-60
2023/02/20 10:35:11;;;;;;;5.43;3.17;;;10.80;57.40;;;;;;5018076;28;21057;-61
2023/02/20 10:37:42;;;;;;;6.40;3.43;;;10.90;56.70;;;;;;5020048;28;20550;-62
2023/02/20 10:40:15;;;;;;;4.77;3.03;;;11.00;56.30;;;;;;5021406;28;20434;-62
2023/02/20 10:42:52;;;;;;;9.53;2.60;;;11.10;55.90;;;;;;5006521;28;20504;-61
2023/02/20 10:45:26;;;;;;;4.50;2.70;;;11.10;55.90;;;;;;5017874;28;20429;-61
2023/02/20 10:48:15;;;;;;;5.50;2.47;;;11.20;56.00;;;;;;5022795;28;21445;-59
2023/02/20 10:51:05;;;;;;;3.67;2.30;;;11.20;55.10;;;;;;5015714;28;20489;-61
2023/02/20 10:54:02;;;;;;;5.70;2.63;;;11.40;55.50;;;;;;5021205;28;20470;-61
2023/02/20 10:56:41;;;;;;;7.10;2.60;;;11.60;55.10;;;;;;5016333;28;20493;-61
2023/02/20 10:59:09;;;;;;;4.50;2.80;;;11.80;54.20;;;;;;5015590;28;20434;-61
2023/02/20 11:01:36;;;;;;;4.60;2.70;;;11.90;54.30;;;;;;5015443;28;21248;-61
2023/02/20 11:04:14;;;;;;;2.80;1.90;;;12.10;53.80;;;;;;5015770;28;20548;-62
2023/02/20 11:06:44;;;;;;;3.83;2.40;;;12.20;52.80;;;;;;5019295;28;20461;-62
2023/02/20 11:09:10;;;;;;;4.20;2.20;;;12.30;52.30;;;;;;5002792;28;20533;-62
2023/02/20 11:11:40;;;;;;;2.40;1.87;;;12.40;51.60;;;;;;5024178;28;20654;-61
2023/02/20 11:14:29;;;;;;;9.93;2.00;;;12.50;50.50;;;;;;5019288;28;20234;-60
2023/02/20 11:17:11;;;;;;;3.37;2.00;;;12.60;50.80;;;;;;5005591;28;20668;-58
2023/02/20 11:19:54;;;;;;;5.60;1.93;;;12.80;50.50;;;;;;5017371;28;20465;-58
2023/02/20 11:22:48;;;;;;;8.60;2.17;;;12.90;50.00;;;;;;5018035;28;20434;-60
2023/02/20 11:25:27;;;;;;;2.07;1.80;;;13.20;50.60;;;;;;5017165;28;20451;-59
2023/02/20 11:28:05;;;;;;;3.10;1.80;;;13.40;49.40;;;;;;5018445;28;20477;-59
2023/02/20 11:30:35;;;;;;;4.47;2.00;;;13.60;48.00;;;;;;5022411;28;20446;-58
2023/02/20 11:33:14;;;;;;;5.27;1.97;;;13.70;47.90;;;;;;5020695;28;20964;-58
2023/02/20 11:35:41;;;;;;;8.43;3.20;;;13.80;48.10;;;;;;5022154;28;20474;-61
2023/02/20 11:38:22;;;;;;;4.77;2.20;;;13.90;48.50;;;;;;5021680;28;20946;-62
2023/02/20 11:41:01;;;;;;;3.50;2.30;;;14.10;49.00;;;;;;5018755;28;20434;-61
2023/02/20 11:43:32;;;;;;;4.40;2.60;;;14.40;49.10;;;;;;5023491;28;20600;-61
2023/02/20 11:46:14;;;;;;;9.33;2.20;;;14.60;49.20;;;;;;4998855;28;20434;-63
2023/02/20 11:48:59;;;;;;;5.70;3.40;;;14.90;49.10;;;;;;5022967;28;20486;-61
2023/02/20 11:51:38;;;;;;;6.47;3.30;;;15.20;48.50;;;;;;5016063;28;20484;-62
2023/02/20 11:54:15;;;;;;;4.90;2.77;;;15.60;48.60;;;;;;5016621;28;20468;-63
2023/02/20 11:57:10;;;;;;;4.33;2.87;;;16.00;48.00;;;;;;5010468;28;20504;-61
2023/02/20 11:59:44;;;;;;;6.23;2.20;;;16.40;47.20;;;;;;5013356;28;20426;-62
2023/02/20 12:02:16;;;;;;;5.30;2.80;;;16.70;47.20;;;;;;5019072;28;20522;-63
2023/02/20 12:05:02;;;;;;;3.30;2.37;;;17.20;46.70;;;;;;5022883;28;20983;-62
2023/02/20 12:07:40;;;;;;;3.67;2.73;;;17.70;44.90;;;;;;5002584;28;20539;-63
2023/02/20 12:10:20;;;;;;;7.03;2.53;;;18.10;44.30;;;;;;5015336;28;20482;-62
2023/02/20 12:12:46;;;;;;;6.27;2.93;;;18.50;44.10;;;;;;5018275;28;20433;-62
2023/02/20 12:15:19;;;;;;;4.07;2.73;;;18.80;43.40;;;;;;5023453;28;20459;-62
2023/02/20 12:18:00;;;;;;;3.77;2.43;;;19.10;43.10;;;;;;5017467;28;20204;-61
2023/02/20 12:20:28;;;;;;;4.63;2.47;;;19.40;41.90;;;;;;5025105;28;20422;-61
2023/02/20 12:23:22;;;;;;;3.30;2.40;;;19.80;41.80;;;;;;5027738;28;20857;-62
2023/02/20 12:25:48;;;;;;;4.77;2.00;;;20.20;40.80;;;;;;5019378;28;20446;-64
2023/02/20 12:28:38;;;;;;;2.90;2.30;;;20.50;40.40;;;;;;5028003;28;20454;-62
2023/02/20 12:31:16;;;;;;;2.77;1.93;;;20.80;39.70;;;;;;5027350;28;20167;-62
2023/02/20 12:34:15;;;;;;;2.80;2.30;;;21.30;39.30;;;;;;5028410;28;20473;-63
2023/02/20 12:37:06;;;;;;;3.30;1.57;;;21.80;38.60;;;;;;5025052;28;20630;-63
2023/02/20 12:39:52;;;;;;;3.07;1.87;;;22.40;37.60;;;;;;5020811;28;20176;-63
2023/02/20 12:42:31;;;;;;;3.47;1.98;;;22.60;36.40;;;;;;5034951;28;20197;-63
2023/02/20 12:45:21;;;;;;;2.78;1.65;;;22.80;35.90;;;;;;5032373;28;20671;-63
2023/02/20 12:48:03;;;;;;;4.20;1.80;;;22.80;35.20;;;;;;5033993;28;20207;-63
2023/02/20 12:50:54;;;;;;;4.13;1.55;;;23.00;35.50;;;;;;5028380;28;20207;-63
2023/02/20 12:53:28;;;;;;;3.35;1.50;;;23.30;34.70;;;;;;5012240;28;20213;-63
2023/02/20 12:56:10;;;;;;;2.28;1.50;;;23.20;33.80;;;;;;5024512;28;20699;-63
2023/02/20 12:58:58;;;;;;;6.50;1.60;;;23.40;33.90;;;;;;5022111;28;20506;-62
2023/02/20 13:01:23;;;;;;;1.90;1.27;;;23.50;33.40;;;;;;5026354;28;20232;-63
2023/02/20 13:03:55;;;;;;;3.95;1.63;;;23.80;32.80;;;;;;5039550;28;20179;-63
2023/02/20 13:06:37;;;;;;;1.90;1.30;;;24.00;32.20;;;;;;5027687;28;20231;-63
2023/02/20 13:09:02;;;;;;;3.13;1.30;;;24.10;32.00;;;;;;5021200;28;20249;-63
2023/02/20 13:11:34;;;;;;;4.55;2.97;;;24.20;32.20;;;;;;5025518;28;20183;-63
2023/02/20 13:14:12;;;;;;;5.97;1.67;;;24.00;32.00;;;;;;5026095;28;20791;-63
2023/02/20 13:17:05;;;;;;;3.57;1.67;;;24.00;32.70;;;;;;5027583;28;20667;-62
2023/02/20 13:19:37;;;;;;;1.73;1.10;;;24.10;32.70;;;;;;5027659;28;20557;-63
2023/02/20 13:22:03;;;;;;;1.90;1.17;;;24.10;32.30;;;;;;5025378;28;20183;-62
2023/02/20 13:24:31;;;;;;;1.70;1.10;;;23.70;31.80;;;;;;5028559;28;20167;-62
2023/02/20 13:27:05;;;;;;;2.87;1.23;;;23.20;32.30;;;;;;5032008;28;20671;-63
2023/02/20 13:29:36;;;;;;;3.80;1.77;;;22.90;31.50;;;;;;5033328;28;20179;-62